Time;durP1;ratioP1;P1;durP2;ratioP2;P2;SDS_P1;SDS_P2;PMS_P1;PMS_P2;Temp;Humidity;BMP_temperature;BMP_pressure;BME280_temperature;BME280_humidity;BME280_pressure;Samples;Min_cycle;Max_cycle;Signal;HPM_P1;HPM_P2
2020/12/02 06:30:04;;;;;;;17.77;10.40;;;;;;;1.30;78.42;101211.09;1659132;84;21184;-36
2020/12/02 06:32:43;;;;;;;16.67;11.75;;;;;;;1.34;78.49;101206.59;1727650;81;21291;-36
2020/12/02 06:39:27;;;;;;;18.62;12.63;;;;;;;1.44;78.22;101217.83;1690680;83;21676;-36
2020/12/02 06:50:15;;;;;;;15.28;10.32;;;;;;;1.52;77.88;101223.41;1679223;83;22107;-37
2020/12/02 06:54:10;;;;;;;17.90;10.48;;;;;;;1.56;77.74;101217.16;1675442;85;21637;-36
2020/12/02 06:58:08;;;;;;;13.72;9.40;;;;;;;1.65;77.49;101218.45;1725231;81;21171;-35
2020/12/02 07:02:08;;;;;;;14.98;9.45;;;;;;;1.68;77.30;101219.88;1702144;82;21167;-37
2020/12/02 07:42:15;;;;;;;12.23;7.72;;;;;;;2.17;74.85;101236.52;1780845;78;23227;-37
2020/12/02 07:45:36;;;;;;;10.55;6.78;;;;;;;2.13;74.71;101247.09;1711220;82;21146;-37
2020/12/02 07:48:25;;;;;;;10.90;6.22;;;;;;;2.15;74.81;101243.32;1708949;82;21215;-36
2020/12/02 07:51:12;;;;;;;12.13;7.40;;;;;;;2.15;74.56;101244.20;1693669;82;21194;-38
2020/12/02 07:54:20;;;;;;;12.00;7.60;;;;;;;2.12;74.22;101229.43;1779771;77;25020;-38
2020/12/02 07:57:10;;;;;;;10.10;7.12;;;;;;;2.07;74.26;101242.92;1725166;81;21178;-39
2020/12/02 08:00:20;;;;;;;8.93;6.28;;;;;;;2.10;74.29;101240.51;1730155;81;21170;-38
2020/12/02 08:02:56;;;;;;;11.08;7.08;;;;;;;2.18;74.17;101235.70;1722335;81;21172;-37
2020/12/02 08:05:58;;;;;;;10.20;7.20;;;;;;;2.23;73.92;101229.95;1730006;81;21725;-38
2020/12/02 08:08:26;;;;;;;12.28;7.55;;;;;;;2.26;73.59;101235.66;1730587;81;21614;-37
2020/12/02 08:11:16;;;;;;;10.93;7.55;;;;;;;2.27;73.56;101231.88;1729754;81;21253;-38
2020/12/02 08:13:53;;;;;;;12.73;8.43;;;;;;;2.28;73.58;101231.06;1698697;81;21162;-37
2020/12/02 08:16:42;;;;;;;14.85;10.65;;;;;;;2.25;73.47;101230.91;1697522;81;21155;-38
2020/12/02 08:19:38;;;;;;;11.50;7.95;;;;;;;2.21;73.58;101229.41;1681968;81;21741;-37
2020/12/02 08:22:40;;;;;;;13.10;7.25;;;;;;;2.28;73.97;101230.18;1663102;81;21640;-38
2020/12/02 08:25:31;;;;;;;12.05;7.30;;;;;;;2.36;73.52;101227.14;1704788;82;21819;-37
2020/12/02 08:28:33;;;;;;;11.85;8.25;;;;;;;2.38;73.64;101223.36;1650720;84;21614;-37
2020/12/02 08:31:34;;;;;;;11.12;8.00;;;;;;;2.43;73.48;101225.73;1675680;84;21254;-36
2020/12/02 09:13:13;;;;;;;11.95;7.25;;;;;;;2.73;72.51;101206.04;1634468;86;22365;-37
2020/12/02 09:16:01;;;;;;;9.50;6.70;;;;;;;2.70;72.53;101209.77;1590383;88;21371;-37
2020/12/02 09:18:31;;;;;;;14.35;7.80;;;;;;;2.75;72.51;101198.82;1599641;88;21601;-37
2020/12/02 09:21:04;;;;;;;10.75;7.17;;;;;;;2.77;72.33;101198.88;1587832;88;21801;-37
2020/12/02 09:23:36;;;;;;;11.15;7.22;;;;;;;2.78;72.37;101203.23;1565055;88;21255;-37
2020/12/02 09:26:18;;;;;;;10.58;6.72;;;;;;;2.73;72.50;101203.45;1625503;85;21908;-37
2020/12/02 09:28:55;;;;;;;8.80;6.10;;;;;;;2.66;72.45;101198.38;1652616;84;21347;-38
2020/12/02 09:31:31;;;;;;;8.88;6.72;;;;;;;2.62;72.07;101206.83;1639503;84;21586;-38
2020/12/02 09:34:18;;;;;;;8.13;6.10;;;;;;;2.52;72.11;101200.34;1641888;85;21223;-38
2020/12/02 09:36:47;;;;;;;7.53;5.35;;;;;;;2.48;72.45;101193.66;1620186;86;21326;-38
2020/12/02 09:39:15;;;;;;;12.93;5.80;;;;;;;2.47;72.54;101190.20;1650171;84;21196;-38
2020/12/02 09:42:15;;;;;;;13.00;7.10;;;;;;;2.54;72.20;101192.66;1652535;84;21174;-37
2020/12/02 09:45:07;;;;;;;11.97;6.80;;;;;;;2.61;72.07;101197.31;1661778;85;21175;-37
2020/12/02 09:47:46;;;;;;;8.88;6.60;;;;;;;2.55;72.39;101200.88;1632278;85;21706;-37
2020/12/02 09:50:15;;;;;;;9.18;6.05;;;;;;;2.56;72.60;101200.97;1558710;89;21687;-37
2020/12/02 09:52:49;;;;;;;7.17;5.15;;;;;;;2.58;72.55;101200.63;1548516;91;21231;-37
2020/12/02 09:55:26;;;;;;;7.90;5.30;;;;;;;2.60;72.19;101195.11;1808485;77;22928;-37
2020/12/02 09:58:01;;;;;;;7.50;5.10;;;;;;;2.54;72.29;101193.53;1788408;79;21312;-37
2020/12/02 10:00:43;;;;;;;8.40;5.72;;;;;;;2.58;71.99;101190.70;1787094;79;21156;-36
2020/12/02 10:04:03;;;;;;;11.70;6.10;;;;;;;2.56;72.17;101185.88;1755170;79;21380;-36
2020/12/02 10:07:01;;;;;;;8.00;5.37;;;;;;;2.61;72.19;101184.40;1779622;78;21588;-37
2020/12/02 10:10:05;;;;;;;9.98;6.20;;;;;;;2.62;72.03;101180.59;1778260;78;21467;-36
2020/12/02 10:13:14;;;;;;;8.13;5.80;;;;;;;2.60;71.76;101173.15;1803419;77;23608;-36
2020/12/02 10:16:54;;;;;;;7.67;5.78;;;;;;;2.57;72.10;101177.31;1791728;78;21183;-37
2020/12/02 10:24:29;;;;;;;9.98;5.87;;;;;;;2.49;72.15;101184.68;1787229;78;20168;-36
2020/12/02 10:28:19;;;;;;;8.98;6.37;;;;;;;2.43;72.46;101189.98;1788230;78;21516;-38
2020/12/02 10:31:47;;;;;;;11.28;6.05;;;;;;;2.38;72.65;101192.38;1745774;78;21136;-37
2020/12/02 10:34:40;;;;;;;9.58;6.70;;;;;;;2.33;73.10;101186.09;1792345;78;21520;-37
2020/12/02 10:40:50;;;;;;;9.83;6.83;;;;;;;2.32;73.61;101186.88;1791360;78;21894;-37
2020/12/02 10:44:27;;;;;;;9.43;7.00;;;;;;;2.31;73.63;101188.58;1784325;78;21240;-37
2020/12/02 10:47:11;;;;;;;9.33;6.62;;;;;;;2.31;73.67;101177.37;1797341;78;21310;-36
2020/12/02 10:49:58;;;;;;;9.93;6.65;;;;;;;2.34;73.54;101178.82;1789962;78;21544;-38
2020/12/02 10:53:07;;;;;;;9.35;6.97;;;;;;;2.35;73.67;101176.71;1776742;78;21907;-37
2020/12/02 10:55:58;;;;;;;11.08;7.92;;;;;;;2.33;73.73;101172.77;1764002;79;21272;-37
2020/12/02 10:58:51;;;;;;;12.47;8.85;;;;;;;2.27;73.88;101171.20;1792037;78;21152;-37
2020/12/02 11:01:27;;;;;;;12.45;6.70;;;;;;;2.22;73.72;101167.51;1772663;78;21155;-40
